createdAt,value
2023-02-11T00:02:15.888Z,17.63
2023-02-11T00:04:42.289Z,9.43
2023-02-11T00:07:08.689Z,12.05
2023-02-11T00:09:35.088Z,16.70
2023-02-11T00:12:01.482Z,16.37
2023-02-11T00:14:27.877Z,15.48
2023-02-11T00:16:54.275Z,10.38
2023-02-11T00:19:46.632Z,7.18
2023-02-11T00:22:13.022Z,15.50
2023-02-11T00:24:39.425Z,18.67
2023-02-11T00:27:15.591Z,8.65
2023-02-11T00:29:41.953Z,17.55
2023-02-11T00:34:55.161Z,14.15
2023-02-11T00:37:22.490Z,13.13
2023-02-11T00:39:52.660Z,13.48
2023-02-11T00:42:19.408Z,10.55
2023-02-11T00:44:48.829Z,9.82
2023-02-11T00:47:21.740Z,10.95
2023-02-11T00:49:50.984Z,16.63
2023-02-11T00:52:17.372Z,9.07
2023-02-11T00:54:46.885Z,14.32
2023-02-11T00:57:16.048Z,12.88
2023-02-11T00:59:47.863Z,8.70
2023-02-11T01:02:17.943Z,19.13
2023-02-11T01:04:44.582Z,11.35
2023-02-11T01:07:19.770Z,7.25
2023-02-11T01:09:46.213Z,12.57
2023-02-11T01:12:12.674Z,12.45
2023-02-11T01:14:39.068Z,20.30
2023-02-11T01:17:06.421Z,14.25
2023-02-11T01:19:32.912Z,11.25
2023-02-11T01:22:02.582Z,9.30
2023-02-11T01:24:32.022Z,12.70
2023-02-11T01:27:00.997Z,16.07
2023-02-11T01:29:27.698Z,11.13
2023-02-11T01:31:57.293Z,11.63
2023-02-11T01:34:31.975Z,12.43
2023-02-11T01:37:02.282Z,11.38
2023-02-11T01:39:29.212Z,9.40
2023-02-11T01:41:55.655Z,15.57
2023-02-11T01:44:28.541Z,8.32
2023-02-11T01:47:17.288Z,10.27
2023-02-11T01:50:00.597Z,14.27
2023-02-11T01:52:36.820Z,9.17
2023-02-11T01:55:29.050Z,12.23
2023-02-11T01:58:02.614Z,16.98
2023-02-11T02:00:39.698Z,13.80
2023-02-11T02:03:12.711Z,13.43
2023-02-11T02:06:17.879Z,12.33
2023-02-11T02:09:16.994Z,14.68
2023-02-11T02:11:44.225Z,12.30
2023-02-11T02:14:14.078Z,11.85
2023-02-11T02:16:40.545Z,12.23
2023-02-11T02:19:44.122Z,18.33
2023-02-11T02:22:45.736Z,9.23
2023-02-11T02:25:36.461Z,8.63
2023-02-11T02:28:37.227Z,13.13
2023-02-11T02:31:30.126Z,10.75
2023-02-11T02:37:42.405Z,11.48
2023-02-11T02:40:39.989Z,9.48
2023-02-11T02:43:18.310Z,13.90
2023-02-11T02:45:47.669Z,15.40
2023-02-11T02:48:24.961Z,13.13
2023-02-11T02:51:01.734Z,16.83
2023-02-11T02:54:21.249Z,11.05
2023-02-11T02:57:25.205Z,14.88
2023-02-11T03:00:29.627Z,12.45
2023-02-11T03:03:27.722Z,10.63
2023-02-11T03:06:42.297Z,16.10
2023-02-11T03:09:26.233Z,15.27
2023-02-11T03:11:52.986Z,12.52
2023-02-11T03:14:20.763Z,9.13
2023-02-11T03:16:50.421Z,14.67
2023-02-11T03:19:44.419Z,9.07
2023-02-11T03:25:12.485Z,8.10
2023-02-11T03:27:57.518Z,11.77
2023-02-11T03:30:43.381Z,12.13
2023-02-11T03:33:25.921Z,13.65
2023-02-11T03:36:22.834Z,15.43
2023-02-11T03:38:54.969Z,12.45
2023-02-11T03:41:25.170Z,18.05
2023-02-11T03:43:57.032Z,18.33
2023-02-11T03:46:49.009Z,15.00
2023-02-11T03:49:20.242Z,11.40
2023-02-11T03:52:00.022Z,12.75
2023-02-11T03:54:31.238Z,14.93
2023-02-11T03:57:02.067Z,12.93
2023-02-11T03:59:32.357Z,17.33
2023-02-11T04:02:02.973Z,14.00
2023-02-11T04:04:29.316Z,13.40
2023-02-11T04:06:58.099Z,12.65
2023-02-11T04:09:27.534Z,27.33
2023-02-11T04:11:53.864Z,12.30
2023-02-11T04:14:23.819Z,9.57
2023-02-11T04:16:53.111Z,11.77
2023-02-11T04:19:19.521Z,12.82
2023-02-11T04:21:54.842Z,10.23
2023-02-11T04:24:31.348Z,13.50
2023-02-11T04:27:07.695Z,12.77
2023-02-11T04:29:36.995Z,12.65
2023-02-11T04:32:03.570Z,13.63
2023-02-11T04:34:36.096Z,13.70
2023-02-11T04:37:02.901Z,16.13
2023-02-11T04:39:29.280Z,20.55
2023-02-11T04:41:56.231Z,18.23
2023-02-11T04:44:22.698Z,21.55
2023-02-11T04:46:49.129Z,21.50
2023-02-11T04:49:21.773Z,18.25
2023-02-11T04:51:51.537Z,13.15
2023-02-11T04:54:18.751Z,23.25
2023-02-11T04:56:49.585Z,16.60
2023-02-11T04:59:16.076Z,15.00
2023-02-11T05:01:42.741Z,23.15
2023-02-11T05:04:21.786Z,16.83
2023-02-11T05:06:48.220Z,20.92
2023-02-11T05:09:16.460Z,31.33
2023-02-11T05:11:43.067Z,19.57
2023-02-11T05:14:09.496Z,19.92
2023-02-11T05:16:38.881Z,24.52
2023-02-11T05:19:08.738Z,11.93
2023-02-11T05:21:37.192Z,19.35
2023-02-11T05:24:05.908Z,15.40
2023-02-11T05:26:32.586Z,17.70
2023-02-11T05:28:59.091Z,18.45
2023-02-11T05:31:29.526Z,19.98
2023-02-11T05:33:55.854Z,20.55
2023-02-11T05:36:22.200Z,17.23
2023-02-11T05:38:51.101Z,19.67
2023-02-11T05:41:20.320Z,19.75
2023-02-11T05:43:52.994Z,15.68
2023-02-11T05:46:26.976Z,16.27
2023-02-11T05:49:04.607Z,22.17
2023-02-11T05:51:31.070Z,16.80
2023-02-11T05:53:57.807Z,20.83
2023-02-11T05:56:24.498Z,21.40
2023-02-11T05:58:53.666Z,18.48
2023-02-11T06:01:22.894Z,18.17
2023-02-11T06:03:55.135Z,19.73
2023-02-11T06:06:21.633Z,23.13
2023-02-11T06:11:34.708Z,20.48
2023-02-11T06:14:01.628Z,22.40
2023-02-11T06:16:27.992Z,18.10
2023-02-11T06:19:03.361Z,23.27
2023-02-11T06:21:42.926Z,21.80
2023-02-11T06:24:10.240Z,20.55
2023-02-11T06:29:21.213Z,17.23
2023-02-11T06:31:50.103Z,24.95
2023-02-11T06:34:16.584Z,20.15
2023-02-11T06:36:47.770Z,21.30
2023-02-11T06:39:17.004Z,19.77
2023-02-11T06:41:50.684Z,21.10
2023-02-11T06:44:19.945Z,24.83
2023-02-11T06:46:46.430Z,27.33
2023-02-11T06:49:16.097Z,26.42
2023-02-11T06:51:42.485Z,22.77
2023-02-11T06:54:08.841Z,23.10
2023-02-11T06:56:39.583Z,18.00
2023-02-11T06:59:09.063Z,26.90
2023-02-11T07:01:37.826Z,27.45
2023-02-11T07:04:04.668Z,30.90
2023-02-11T07:06:31.044Z,20.42
2023-02-11T07:08:57.513Z,21.10
2023-02-11T07:11:28.897Z,23.92
2023-02-11T07:13:59.577Z,24.50
2023-02-11T07:16:28.494Z,22.77
2023-02-11T07:18:57.873Z,23.38
2023-02-11T07:21:24.637Z,24.00
2023-02-11T07:23:53.668Z,28.50
2023-02-11T07:26:25.699Z,19.65
2023-02-11T07:28:58.357Z,25.80
2023-02-11T07:31:29.701Z,25.00
2023-02-11T07:34:02.832Z,21.00
2023-02-11T07:36:31.684Z,26.33
2023-02-11T07:39:01.441Z,27.38
2023-02-11T07:41:30.278Z,22.70
2023-02-11T07:43:56.700Z,28.55
2023-02-11T07:46:28.480Z,27.95
2023-02-11T07:48:58.153Z,23.75
2023-02-11T07:51:33.344Z,22.42
2023-02-11T07:54:03.853Z,28.47
2023-02-11T07:56:33.531Z,25.83
2023-02-11T07:59:03.576Z,26.35
2023-02-11T08:01:34.677Z,24.05
2023-02-11T08:04:04.764Z,20.95
2023-02-11T08:06:36.626Z,18.30
2023-02-11T08:09:18.477Z,22.73
2023-02-11T08:11:45.387Z,23.17
2023-02-11T08:14:12.658Z,24.00
2023-02-11T08:16:42.243Z,29.65
2023-02-11T08:19:16.851Z,22.90
2023-02-11T08:21:46.927Z,27.00
2023-02-11T08:24:18.078Z,23.20
2023-02-11T08:26:44.649Z,29.95
2023-02-11T08:29:14.365Z,25.80
2023-02-11T08:31:46.737Z,24.63
2023-02-11T08:34:23.523Z,22.98
2023-02-11T08:36:50.102Z,20.67
2023-02-11T08:39:29.534Z,26.90
2023-02-11T08:41:59.103Z,27.00
2023-02-11T08:44:28.025Z,30.57
2023-02-11T08:46:54.417Z,24.17
2023-02-11T08:49:25.945Z,25.88
2023-02-11T08:51:56.196Z,19.10
2023-02-11T08:54:22.840Z,26.65
2023-02-11T08:59:38.884Z,23.48
2023-02-11T09:02:06.260Z,26.02
2023-02-11T09:04:33.693Z,22.70
2023-02-11T09:07:02.941Z,25.48
2023-02-11T09:09:29.312Z,18.77
2023-02-11T09:12:01.165Z,24.35
2023-02-11T09:14:31.132Z,20.80
2023-02-11T09:19:42.322Z,18.75
2023-02-11T09:22:12.263Z,19.20
2023-02-11T09:24:38.796Z,20.17
2023-02-11T09:27:08.421Z,19.85
2023-02-11T09:29:37.702Z,25.77
2023-02-11T09:32:11.817Z,22.40
2023-02-11T09:34:41.315Z,19.50
2023-02-11T09:37:07.894Z,25.02
2023-02-11T09:39:36.948Z,18.17
2023-02-11T09:42:44.180Z,19.05
2023-02-11T09:45:17.478Z,18.40
2023-02-11T09:47:48.706Z,22.13
2023-02-11T09:50:22.388Z,15.57
2023-02-11T09:52:58.385Z,21.27
2023-02-11T09:55:31.656Z,16.92
2023-02-11T09:57:58.502Z,15.75
2023-02-11T10:00:34.764Z,18.60
2023-02-11T10:06:32.404Z,16.92
2023-02-11T10:09:13.761Z,15.32
2023-02-11T10:12:07.394Z,15.15
2023-02-11T10:14:57.767Z,12.33
2023-02-11T10:18:20.662Z,16.40
2023-02-11T10:20:46.947Z,12.82
2023-02-11T10:23:34.895Z,14.05
2023-02-11T10:26:30.490Z,14.35
2023-02-11T10:29:02.167Z,14.10
2023-02-11T10:31:43.872Z,11.18
2023-02-11T10:34:33.398Z,16.30
2023-02-11T10:37:00.274Z,13.00
2023-02-11T10:39:50.656Z,12.68
2023-02-11T10:42:19.985Z,11.70
2023-02-11T10:45:06.263Z,14.45
2023-02-11T10:47:43.706Z,11.25
2023-02-11T10:50:34.880Z,10.65
2023-02-11T10:53:27.124Z,14.57
2023-02-11T10:55:57.975Z,8.23
2023-02-11T10:58:50.265Z,9.15
2023-02-11T11:01:24.368Z,10.27
2023-02-11T11:03:54.249Z,13.15
2023-02-11T11:06:35.984Z,10.82
2023-02-11T11:09:09.977Z,12.17
2023-02-11T11:11:52.879Z,12.00
2023-02-11T11:14:20.290Z,10.75
2023-02-11T11:16:55.526Z,10.20
2023-02-11T11:19:24.586Z,8.60
2023-02-11T11:21:57.822Z,9.10
2023-02-11T11:24:46.577Z,8.98
2023-02-11T11:27:27.112Z,8.48
2023-02-11T11:29:58.298Z,9.63
2023-02-11T11:32:32.982Z,9.35
2023-02-11T11:35:09.897Z,9.37
2023-02-11T11:37:37.345Z,8.40
2023-02-11T11:40:16.009Z,11.38
2023-02-11T11:42:46.382Z,9.52
2023-02-11T11:45:28.532Z,6.93
2023-02-11T11:48:23.959Z,11.13
2023-02-11T11:51:00.786Z,19.75
2023-02-11T11:54:11.116Z,79.90
2023-02-11T11:59:32.274Z,10.35
2023-02-11T12:02:42.405Z,12.13
2023-02-11T12:05:20.131Z,5.35
2023-02-11T12:08:04.449Z,8.00
2023-02-11T12:10:57.766Z,8.93
2023-02-11T12:13:44.927Z,8.77
2023-02-11T12:16:36.115Z,7.77
2023-02-11T12:19:29.149Z,6.05
2023-02-11T12:22:33.547Z,5.35
2023-02-11T12:25:15.064Z,4.95
2023-02-11T12:27:47.445Z,5.57
2023-02-11T12:30:53.688Z,6.63
2023-02-11T12:33:48.327Z,3.53
2023-02-11T12:36:48.903Z,5.18
2023-02-11T12:39:53.352Z,5.78
2023-02-11T12:43:02.701Z,3.58
2023-02-11T12:45:55.773Z,5.40
2023-02-11T12:48:59.719Z,4.43
2023-02-11T12:51:56.884Z,4.70
2023-02-11T12:54:41.478Z,3.60
2023-02-11T12:57:29.050Z,4.10
2023-02-11T13:00:09.270Z,4.67
2023-02-11T13:03:04.438Z,5.75
2023-02-11T13:08:20.327Z,3.97
2023-02-11T13:10:50.409Z,3.30
2023-02-11T13:13:28.744Z,4.07
2023-02-11T13:16:24.907Z,4.05
2023-02-11T13:19:05.808Z,4.05
2023-02-11T13:21:54.541Z,3.60
2023-02-11T13:24:39.657Z,5.22
2023-02-11T13:27:36.687Z,5.47
2023-02-11T13:30:40.968Z,4.05
2023-02-11T13:33:40.773Z,4.85
2023-02-11T13:36:07.312Z,3.58
2023-02-11T13:38:37.690Z,4.80
2023-02-11T13:41:24.747Z,3.90
2023-02-11T13:44:26.172Z,6.95
2023-02-11T13:47:08.418Z,3.60
2023-02-11T13:49:35.793Z,4.82
2023-02-11T13:52:16.368Z,7.35
2023-02-11T13:54:52.703Z,4.93
2023-02-11T13:57:21.995Z,5.20
2023-02-11T13:59:57.735Z,5.25
2023-02-11T14:02:55.818Z,5.15
2023-02-11T14:05:47.893Z,3.42
2023-02-11T14:08:39.652Z,6.27
2023-02-11T14:11:15.454Z,3.88
2023-02-11T14:13:49.089Z,4.68
2023-02-11T14:16:37.557Z,4.85
2023-02-11T14:19:06.776Z,3.97
2023-02-11T14:21:40.570Z,4.87
2023-02-11T14:24:10.846Z,5.80
2023-02-11T14:26:49.255Z,8.05
2023-02-11T14:29:54.192Z,4.22
2023-02-11T14:32:38.012Z,5.88
2023-02-11T14:35:15.881Z,4.00
2023-02-11T14:38:00.393Z,3.80
2023-02-11T14:40:37.885Z,3.50
2023-02-11T14:43:20.719Z,6.75
2023-02-11T14:45:52.048Z,7.97
2023-02-11T14:48:26.870Z,4.77
2023-02-11T14:51:06.296Z,3.55
2023-02-11T14:53:38.058Z,6.70
2023-02-11T14:56:20.310Z,6.72
2023-02-11T14:58:51.903Z,6.80
2023-02-11T15:01:43.454Z,5.73
2023-02-11T15:07:06.105Z,8.40
2023-02-11T15:10:04.587Z,5.38
2023-02-11T15:12:41.779Z,4.78
2023-02-11T15:15:21.426Z,5.57
2023-02-11T15:18:04.457Z,5.50
2023-02-11T15:20:43.911Z,4.43
2023-02-11T15:23:27.240Z,3.88
2023-02-11T15:32:15.119Z,5.07
2023-02-11T15:44:05.697Z,3.67
2023-02-11T15:46:59.854Z,4.73
2023-02-11T15:49:58.254Z,8.00
2023-02-11T15:52:29.616Z,7.03
2023-02-11T15:55:22.085Z,8.18
2023-02-11T15:58:05.691Z,5.85
2023-02-11T16:00:49.917Z,5.43
2023-02-11T16:03:25.637Z,5.63
2023-02-11T16:05:52.087Z,5.78
2023-02-11T16:08:32.699Z,6.90
2023-02-11T16:11:09.804Z,8.20
2023-02-11T16:13:51.534Z,5.17
2023-02-11T16:16:31.389Z,6.10
2023-02-11T16:19:05.158Z,5.47
2023-02-11T16:21:38.858Z,4.97
2023-02-11T16:24:08.202Z,6.68
2023-02-11T16:26:43.385Z,6.53
2023-02-11T16:29:24.273Z,4.30
2023-02-11T16:31:55.240Z,5.60
2023-02-11T16:34:26.049Z,4.65
2023-02-11T16:39:48.993Z,6.10
2023-02-11T16:42:18.361Z,3.22
2023-02-11T16:44:55.352Z,4.78
2023-02-11T16:47:33.088Z,6.03
2023-02-11T16:52:54.957Z,4.07
2023-02-11T16:55:28.938Z,4.53
2023-02-11T16:57:58.124Z,7.65
2023-02-11T17:00:27.113Z,6.13
2023-02-11T17:02:59.505Z,4.70
2023-02-11T17:05:26.400Z,6.53
2023-02-11T17:08:03.580Z,4.68
2023-02-11T17:10:33.345Z,6.00
2023-02-11T17:12:59.869Z,6.35
2023-02-11T17:15:26.326Z,6.72
2023-02-11T17:17:52.801Z,4.77
2023-02-11T17:20:23.568Z,5.40
2023-02-11T17:22:50.102Z,8.38
2023-02-11T17:25:17.074Z,6.38
2023-02-11T17:27:52.963Z,6.60
2023-02-11T17:30:19.726Z,6.37
2023-02-11T17:32:50.438Z,7.18
2023-02-11T17:35:19.689Z,7.80
2023-02-11T17:37:54.076Z,5.47
2023-02-11T17:40:20.637Z,8.95
2023-02-11T17:42:47.048Z,7.53
2023-02-11T17:45:17.171Z,5.28
2023-02-11T17:47:49.092Z,4.70
2023-02-11T17:50:16.125Z,10.90
2023-02-11T17:52:42.639Z,6.43
2023-02-11T17:55:09.100Z,5.60
2023-02-11T17:57:35.751Z,8.32
2023-02-11T18:00:05.134Z,8.25
2023-02-11T18:02:34.785Z,6.55
2023-02-11T18:05:01.508Z,7.63
2023-02-11T18:07:31.276Z,5.67
2023-02-11T18:09:57.754Z,7.57
2023-02-11T18:12:30.199Z,7.85
2023-02-11T18:14:59.987Z,6.47
2023-02-11T18:17:26.469Z,7.13
2023-02-11T18:19:56.630Z,5.50
2023-02-11T18:22:26.506Z,8.00
2023-02-11T18:25:05.267Z,6.53
2023-02-11T18:27:32.215Z,9.57
2023-02-11T18:32:41.593Z,6.30
2023-02-11T18:35:15.134Z,6.43
2023-02-11T18:37:53.595Z,7.28
2023-02-11T18:40:20.171Z,7.90
2023-02-11T18:42:50.484Z,8.75
2023-02-11T18:45:20.031Z,7.50
2023-02-11T18:47:53.882Z,6.53
2023-02-11T18:50:23.245Z,8.82
2023-02-11T18:52:49.591Z,9.30
2023-02-11T18:55:27.982Z,7.82
2023-02-11T18:57:58.371Z,7.33
2023-02-11T19:00:27.156Z,8.73
2023-02-11T19:02:53.540Z,6.72
2023-02-11T19:05:24.050Z,9.50
2023-02-11T19:07:53.157Z,6.57
2023-02-11T19:10:26.867Z,10.10
2023-02-11T19:12:58.613Z,9.20
2023-02-11T19:18:13.168Z,8.32
2023-02-11T19:20:41.056Z,9.82
2023-02-11T19:23:09.785Z,7.50
2023-02-11T19:25:46.823Z,7.10
2023-02-11T19:28:15.828Z,7.25
2023-02-11T19:30:45.407Z,8.68
2023-02-11T19:33:11.882Z,5.22
2023-02-11T19:35:43.493Z,17.27
2023-02-11T19:38:10.159Z,8.45
2023-02-11T19:40:36.546Z,6.95
2023-02-11T19:43:04.464Z,10.07
2023-02-11T19:45:37.369Z,15.20
2023-02-11T19:48:07.615Z,7.10
2023-02-11T19:50:36.730Z,7.85
2023-02-11T19:53:03.191Z,10.00
2023-02-11T19:55:42.919Z,10.68
2023-02-11T19:58:14.518Z,8.98
2023-02-11T20:00:43.743Z,8.40
2023-02-11T20:03:10.219Z,5.88
2023-02-11T20:05:46.890Z,15.07
2023-02-11T20:08:19.811Z,7.18
2023-02-11T20:10:49.192Z,9.23
2023-02-11T20:13:15.824Z,7.17
2023-02-11T20:18:25.422Z,6.60
2023-02-11T20:20:54.730Z,8.10
2023-02-11T20:23:21.094Z,7.03
2023-02-11T20:25:52.507Z,6.53
2023-02-11T20:28:22.217Z,8.32
2023-02-11T20:31:02.177Z,10.02
2023-02-11T20:33:37.301Z,10.45
2023-02-11T20:36:17.792Z,10.10
2023-02-11T20:38:47.545Z,8.90
2023-02-11T20:41:28.690Z,9.07
2023-02-11T20:43:56.022Z,7.15
2023-02-11T20:46:25.606Z,7.22
2023-02-11T20:48:52.998Z,8.75
2023-02-11T20:51:25.629Z,8.83
2023-02-11T20:53:55.846Z,6.05
2023-02-11T20:56:30.809Z,8.93
2023-02-11T20:59:02.120Z,9.35
2023-02-11T21:01:43.662Z,10.25
2023-02-11T21:04:25.497Z,9.67
2023-02-11T21:06:54.664Z,7.30
2023-02-11T21:09:30.613Z,7.65
2023-02-11T21:12:00.808Z,13.73
2023-02-11T21:14:30.904Z,7.20
2023-02-11T21:17:00.261Z,9.00
2023-02-11T21:19:26.768Z,8.95
2023-02-11T21:21:54.668Z,9.93
2023-02-11T21:24:28.513Z,10.27
2023-02-11T21:26:57.842Z,7.85
2023-02-11T21:29:26.782Z,7.33
2023-02-11T21:31:59.290Z,9.70
2023-02-11T21:34:25.652Z,10.43
2023-02-11T21:37:04.726Z,9.00
2023-02-11T21:39:37.151Z,11.75
2023-02-11T21:42:06.395Z,7.87
2023-02-11T21:44:35.362Z,15.85
2023-02-11T21:47:03.344Z,6.15
2023-02-11T21:49:33.434Z,11.00
2023-02-11T21:52:03.708Z,8.68
2023-02-11T21:54:33.200Z,7.97
2023-02-11T21:57:03.215Z,6.88
2023-02-11T21:59:35.213Z,9.50
2023-02-11T22:02:01.618Z,7.00
2023-02-11T22:04:31.755Z,8.77
2023-02-11T22:07:02.816Z,7.13
2023-02-11T22:09:30.691Z,6.00
2023-02-11T22:11:57.122Z,6.05
2023-02-11T22:14:23.638Z,8.70
2023-02-11T22:16:50.113Z,12.20
2023-02-11T22:22:04.066Z,10.80
2023-02-11T22:24:43.114Z,9.27
2023-02-11T22:27:13.468Z,7.18
2023-02-11T22:29:41.963Z,7.88
2023-02-11T22:32:13.696Z,8.60
2023-02-11T22:34:40.208Z,8.85
2023-02-11T22:37:07.802Z,11.00
2023-02-11T22:39:41.620Z,9.63
2023-02-11T22:42:11.439Z,11.57
2023-02-11T22:44:41.238Z,10.33
2023-02-11T22:47:07.618Z,8.48
2023-02-11T22:49:37.924Z,12.27
2023-02-11T22:52:07.175Z,8.27
2023-02-11T22:54:33.884Z,8.25
2023-02-11T22:57:03.245Z,14.13
2023-02-11T22:59:29.635Z,8.40
2023-02-11T23:01:56.182Z,11.80
2023-02-11T23:13:39.356Z,10.68
2023-02-11T23:16:13.420Z,10.90
2023-02-11T23:18:45.158Z,10.38
2023-02-11T23:21:33.900Z,9.02
2023-02-11T23:24:06.997Z,11.97
2023-02-11T23:26:44.955Z,12.68
2023-02-11T23:29:11.831Z,11.32
2023-02-11T23:31:47.766Z,13.60
2023-02-11T23:34:21.492Z,11.55
2023-02-11T23:36:52.678Z,12.73
2023-02-11T23:39:21.602Z,13.00
2023-02-11T23:41:49.073Z,13.18
2023-02-11T23:44:15.491Z,11.85
2023-02-11T23:46:41.916Z,16.73
2023-02-11T23:54:34.413Z,11.98
2023-02-11T23:57:03.824Z,12.65
2023-02-11T23:59:30.446Z,8.15
